Terminal Aerodrome Forecast
Issued by NWS

Home | Current Version | Previous Version | Text Only | Print | Product List | Glossary Off
Versions: 1 2 3 4 5 6 7 8 9 10 11 12 13 14 15

836
FTUS43 KBIS 180753 AAA
TAFJMS
TAF AMD
KJMS 180753Z 1808/1906 VRB13G23KT 2SM TSRA BKN060CB
     FM180900 06004KT P6SM VCTS BKN060CB BKN200
     FM181200 28005KT P6SM FEW035 SCT150
     FM181700 33009KT P6SM FEW030 FEW150
     FM190500 22004KT P6SM SKC=

USA.gov is the U.S. government's official web portal to all federal, state and local government web resources and services.